createdAt,value
2019-03-04T00:02:21.222Z,92.09
2019-03-04T00:05:26.673Z,92.06
2019-03-04T00:08:32.967Z,91.35
2019-03-04T00:11:42.845Z,91.48
2019-03-04T00:14:46.892Z,90.61
2019-03-04T00:17:55.717Z,91.29
2019-03-04T00:21:01.048Z,90.94
2019-03-04T00:24:06.331Z,90.30
2019-03-04T00:27:12.197Z,89.83
2019-03-04T00:30:18.332Z,89.81
2019-03-04T00:33:24.593Z,89.49
2019-03-04T00:36:29.838Z,89.13
2019-03-04T00:39:35.082Z,89.05
2019-03-04T00:42:41.822Z,88.18
2019-03-04T00:49:05.477Z,88.62
2019-03-04T00:52:10.966Z,87.78
2019-03-04T00:55:16.357Z,87.65
2019-03-04T00:58:21.612Z,88.26
2019-03-04T01:01:26.862Z,88.43
2019-03-04T01:04:32.100Z,87.94
2019-03-04T01:07:37.362Z,86.80
2019-03-04T01:10:42.647Z,87.01
2019-03-04T01:13:47.930Z,87.30
2019-03-04T01:16:53.136Z,87.21
2019-03-04T01:20:00.890Z,86.61
2019-03-04T01:23:05.545Z,87.04
2019-03-04T01:26:13.112Z,85.99
2019-03-04T01:29:18.372Z,85.42
2019-03-04T01:32:23.609Z,84.82
2019-03-04T01:35:29.045Z,84.65
2019-03-04T01:38:34.326Z,85.66
2019-03-04T01:41:39.619Z,86.40
2019-03-04T01:44:44.883Z,85.96
2019-03-04T01:47:50.211Z,85.41
2019-03-04T01:50:55.462Z,85.19
2019-03-04T01:54:00.765Z,85.08
2019-03-04T01:57:06.196Z,85.59
2019-03-04T02:00:14.274Z,85.05
2019-03-04T02:03:19.556Z,85.08
2019-03-04T02:06:24.901Z,83.79
2019-03-04T02:09:30.178Z,84.39
2019-03-04T02:12:35.472Z,84.48
2019-03-04T02:15:42.277Z,84.69
2019-03-04T02:18:50.096Z,84.47
2019-03-04T02:21:55.333Z,84.72
2019-03-04T02:25:00.662Z,84.44
2019-03-04T02:28:05.925Z,83.76
2019-03-04T02:31:11.297Z,83.64
2019-03-04T02:34:16.667Z,83.32
2019-03-04T02:37:22.002Z,83.63
2019-03-04T02:40:27.327Z,82.74
2019-03-04T02:43:32.530Z,83.34
2019-03-04T02:46:37.808Z,82.90
2019-03-04T02:49:43.123Z,82.34
2019-03-04T02:52:48.428Z,82.31
2019-03-04T02:55:53.691Z,82.13
2019-03-04T02:58:58.992Z,81.80
2019-03-04T03:02:06.057Z,82.05
2019-03-04T03:05:11.421Z,81.76
2019-03-04T03:08:16.819Z,81.50
2019-03-04T03:11:22.106Z,82.17
2019-03-04T03:14:27.534Z,82.41
2019-03-04T03:17:32.789Z,81.74
2019-03-04T03:20:38.120Z,81.58
2019-03-04T03:23:43.428Z,82.12
2019-03-04T03:26:48.695Z,81.28
2019-03-04T03:29:55.025Z,81.35
2019-03-04T03:33:00.347Z,81.11
2019-03-04T03:36:05.687Z,81.79
2019-03-04T03:39:11.100Z,81.18
2019-03-04T03:42:18.833Z,81.63
2019-03-04T03:45:23.389Z,81.38
2019-03-04T03:48:28.756Z,81.47
2019-03-04T03:51:35.026Z,81.87
2019-03-04T03:54:40.330Z,81.65
2019-03-04T03:57:45.743Z,81.25
2019-03-04T04:00:51.069Z,80.82
2019-03-04T04:03:57.916Z,80.86
2019-03-04T04:07:03.117Z,81.63
2019-03-04T04:10:10.185Z,81.93
2019-03-04T04:13:15.486Z,81.66
2019-03-04T04:16:20.781Z,81.15
2019-03-04T04:19:26.043Z,80.70
2019-03-04T04:22:31.377Z,81.76
2019-03-04T04:25:36.609Z,81.14
2019-03-04T04:28:41.858Z,81.26
2019-03-04T04:31:47.117Z,80.56
2019-03-04T04:34:52.348Z,80.86
2019-03-04T04:37:57.671Z,79.48
2019-03-04T04:41:02.956Z,79.85
2019-03-04T04:44:08.582Z,79.89
2019-03-04T04:47:13.835Z,80.09
2019-03-04T04:50:19.156Z,80.15
2019-03-04T04:53:24.410Z,79.10
2019-03-04T04:56:29.625Z,78.71
2019-03-04T04:59:34.882Z,79.35
2019-03-04T05:02:40.174Z,79.84
2019-03-04T05:05:45.425Z,79.73
2019-03-04T05:08:50.751Z,79.27
2019-03-04T05:11:56.589Z,79.35
2019-03-04T05:15:01.852Z,77.52
2019-03-04T05:18:07.156Z,76.56
2019-03-04T05:21:12.403Z,77.35
2019-03-04T05:24:17.790Z,77.37
2019-03-04T05:27:26.166Z,76.35
2019-03-04T05:30:31.515Z,75.41
2019-03-04T05:33:36.865Z,75.06
2019-03-04T05:36:42.137Z,74.15
2019-03-04T05:39:47.467Z,74.28
2019-03-04T05:42:52.991Z,74.04
2019-03-04T05:45:58.413Z,74.40
2019-03-04T05:49:03.751Z,72.98
2019-03-04T05:52:08.972Z,73.91
2019-03-04T05:55:14.259Z,73.59
2019-03-04T05:58:19.523Z,73.87
2019-03-04T06:01:36.364Z,74.00
2019-03-04T06:04:43.557Z,73.14
2019-03-04T06:07:54.758Z,72.88
2019-03-04T06:11:00.151Z,73.93
2019-03-04T06:14:06.005Z,73.45
2019-03-04T06:17:11.236Z,73.98
2019-03-04T06:20:17.071Z,72.62
2019-03-04T06:23:22.416Z,72.04
2019-03-04T06:26:27.787Z,71.72
2019-03-04T06:29:35.892Z,71.24
2019-03-04T06:32:40.015Z,72.13
2019-03-04T06:35:47.946Z,70.40
2019-03-04T06:38:53.189Z,69.69
2019-03-04T06:41:58.470Z,70.76
2019-03-04T06:45:03.795Z,70.51
2019-03-04T06:48:09.149Z,70.96
2019-03-04T06:51:23.027Z,70.87
2019-03-04T06:55:01.965Z,71.33
2019-03-04T06:58:07.297Z,71.82
2019-03-04T07:01:16.422Z,71.18
2019-03-04T07:04:29.997Z,70.89
2019-03-04T07:07:35.321Z,71.87
2019-03-04T07:10:40.715Z,71.67
2019-03-04T07:13:45.971Z,71.00
2019-03-04T07:16:52.248Z,71.58
2019-03-04T07:20:10.012Z,70.76
2019-03-04T07:23:15.307Z,71.18
2019-03-04T07:26:20.628Z,71.18
2019-03-04T07:29:26.901Z,71.49
2019-03-04T07:32:32.220Z,72.01
2019-03-04T07:35:37.482Z,79.62
2019-03-04T07:38:45.249Z,94.99
2019-03-04T07:41:52.191Z,95.80
2019-03-04T07:44:57.431Z,98.24
2019-03-04T07:48:02.717Z,98.30
2019-03-04T07:51:12.627Z,96.97
2019-03-04T07:54:17.886Z,96.78
2019-03-04T07:57:23.145Z,93.77
2019-03-04T08:00:28.381Z,95.29
2019-03-04T08:03:33.610Z,94.58
2019-03-04T08:06:40.002Z,93.11
2019-03-04T08:10:15.974Z,91.18
2019-03-04T08:13:27.791Z,89.94
2019-03-04T08:16:33.096Z,88.56
2019-03-04T08:19:38.331Z,88.41
2019-03-04T08:22:43.555Z,87.05
2019-03-04T08:25:48.779Z,86.09
2019-03-04T08:28:54.037Z,87.98
2019-03-04T08:31:59.329Z,84.78
2019-03-04T08:35:05.034Z,84.69
2019-03-04T08:38:10.262Z,82.92
2019-03-04T08:41:15.454Z,85.96
2019-03-04T08:44:20.700Z,84.18
2019-03-04T08:47:25.953Z,82.66
2019-03-04T08:50:31.207Z,80.51
2019-03-04T08:53:36.450Z,81.58
2019-03-04T08:56:41.686Z,80.70
2019-03-04T08:59:46.957Z,80.64
2019-03-04T09:02:52.259Z,81.76
2019-03-04T09:05:57.550Z,79.90
2019-03-04T09:09:02.991Z,80.11
2019-03-04T09:12:09.894Z,79.27
2019-03-04T09:15:16.557Z,76.62
2019-03-04T09:18:23.410Z,77.71
2019-03-04T09:21:28.734Z,77.20
2019-03-04T09:24:34.079Z,78.77
2019-03-04T09:27:39.500Z,79.29
2019-03-04T09:30:44.910Z,78.07
2019-03-04T09:33:50.157Z,76.84
2019-03-04T09:36:57.514Z,75.85
2019-03-04T09:40:02.820Z,74.93
2019-03-04T09:43:08.281Z,75.10
2019-03-04T09:46:13.563Z,75.05
2019-03-04T09:49:18.811Z,74.94
2019-03-04T09:52:24.141Z,72.96
2019-03-04T09:55:29.498Z,74.52
2019-03-04T09:58:34.833Z,72.91
2019-03-04T10:01:47.245Z,71.05
2019-03-04T10:05:22.669Z,70.22
2019-03-04T10:08:57.651Z,70.98
2019-03-04T10:12:43.674Z,70.87
2019-03-04T10:16:32.687Z,66.77
2019-03-04T10:20:08.621Z,66.25
2019-03-04T10:23:32.576Z,65.25
2019-03-04T10:27:06.401Z,66.48
2019-03-04T10:30:44.364Z,66.50
2019-03-04T10:34:40.669Z,66.61
2019-03-04T10:38:08.454Z,67.90
2019-03-04T10:41:47.950Z,65.09
2019-03-04T10:45:32.804Z,66.37
2019-03-04T10:48:38.142Z,64.35
2019-03-04T10:51:43.405Z,65.38
2019-03-04T10:54:48.625Z,63.21
2019-03-04T10:57:53.890Z,63.72
2019-03-04T11:00:59.231Z,62.66
2019-03-04T11:04:04.999Z,64.67
2019-03-04T11:07:10.436Z,69.53
2019-03-04T11:10:15.667Z,77.37
2019-03-04T11:13:20.994Z,87.97
2019-03-04T11:16:26.334Z,91.34
2019-03-04T11:19:31.626Z,90.49
2019-03-04T11:22:36.911Z,90.10
2019-03-04T11:25:42.326Z,88.05
2019-03-04T11:28:47.607Z,88.07
2019-03-04T11:31:52.874Z,87.24
2019-03-04T11:34:58.188Z,84.80
2019-03-04T11:38:05.956Z,85.17
2019-03-04T11:41:14.088Z,84.18
2019-03-04T11:44:19.312Z,83.03
2019-03-04T11:47:26.406Z,80.95
2019-03-04T11:50:31.609Z,80.95
2019-03-04T11:53:36.859Z,79.19
2019-03-04T11:56:42.153Z,79.16
2019-03-04T11:59:47.401Z,78.38
2019-03-04T12:02:52.728Z,79.17
2019-03-04T12:05:58.019Z,80.44
2019-03-04T12:09:05.095Z,82.15
2019-03-04T12:12:11.870Z,87.43
2019-03-04T12:15:17.685Z,97.37
2019-03-04T12:18:23.024Z,99.91
2019-03-04T12:21:28.326Z,101.85
2019-03-04T12:24:33.560Z,101.45
2019-03-04T12:27:45.878Z,101.83
2019-03-04T12:30:51.233Z,102.18
2019-03-04T12:33:56.534Z,102.35
2019-03-04T12:37:01.835Z,102.80
2019-03-04T12:40:09.979Z,102.98
2019-03-04T12:43:15.391Z,103.02
2019-03-04T12:46:20.654Z,102.59
2019-03-04T12:49:26.049Z,101.93
2019-03-04T12:52:31.361Z,102.76
2019-03-04T12:55:39.305Z,100.46
2019-03-04T12:58:44.610Z,99.75
2019-03-04T13:01:50.035Z,101.03
2019-03-04T13:04:55.418Z,100.53
2019-03-04T13:08:03.735Z,99.45
2019-03-04T13:11:09.079Z,97.32
2019-03-04T13:14:14.388Z,97.36
2019-03-04T13:17:19.653Z,96.68
2019-03-04T13:20:24.994Z,94.86
2019-03-04T13:23:30.298Z,94.48
2019-03-04T13:26:35.570Z,95.93
2019-03-04T13:29:40.928Z,95.42
2019-03-04T13:32:46.240Z,94.60
2019-03-04T13:35:51.535Z,93.48
2019-03-04T13:38:57.133Z,90.30
2019-03-04T13:42:02.400Z,91.13
2019-03-04T13:45:09.599Z,90.41
2019-03-04T13:48:16.478Z,91.37
2019-03-04T13:51:21.790Z,89.99
2019-03-04T13:54:27.227Z,90.52
2019-03-04T13:57:32.520Z,91.18
2019-03-04T14:00:37.994Z,90.98
2019-03-04T14:03:43.216Z,93.00
2019-03-04T14:06:48.489Z,90.72
2019-03-04T14:09:53.820Z,90.04
2019-03-04T14:12:59.068Z,88.89
2019-03-04T14:16:04.848Z,88.04
2019-03-04T14:19:10.084Z,87.95
2019-03-04T14:22:15.352Z,86.13
2019-03-04T14:25:20.614Z,85.22
2019-03-04T14:28:28.162Z,84.80
2019-03-04T14:31:32.927Z,85.26
2019-03-04T14:34:38.209Z,84.10
2019-03-04T14:37:43.531Z,84.60
2019-03-04T14:40:48.818Z,83.15
2019-03-04T14:43:54.153Z,84.69
2019-03-04T14:47:01.102Z,83.67
2019-03-04T14:50:10.171Z,81.80
2019-03-04T14:53:15.415Z,81.31
2019-03-04T14:56:22.625Z,79.03
2019-03-04T14:59:27.669Z,82.50
2019-03-04T15:02:32.863Z,81.76
2019-03-04T15:05:38.130Z,81.77
2019-03-04T15:08:43.418Z,79.88
2019-03-04T15:11:48.693Z,79.72
2019-03-04T15:14:54.005Z,81.34
2019-03-04T15:17:59.373Z,79.98
2019-03-04T15:21:05.029Z,80.46
2019-03-04T15:24:10.328Z,79.62
2019-03-04T15:27:15.574Z,80.91
2019-03-04T15:30:20.924Z,80.23
2019-03-04T15:33:26.206Z,79.97
2019-03-04T15:36:31.426Z,79.80
2019-03-04T15:39:36.762Z,81.86
2019-03-04T15:42:43.726Z,80.14
2019-03-04T15:45:51.323Z,80.48
2019-03-04T15:48:57.656Z,79.21
2019-03-04T15:52:03.057Z,78.28
2019-03-04T15:55:09.708Z,77.65
2019-03-04T15:58:15.179Z,78.29
2019-03-04T16:01:20.592Z,77.56
2019-03-04T16:04:45.018Z,78.64
2019-03-04T16:07:50.379Z,78.74
2019-03-04T16:10:55.789Z,77.98
2019-03-04T16:14:01.172Z,76.81
2019-03-04T16:17:08.565Z,76.51
2019-03-04T16:20:16.463Z,75.04
2019-03-04T16:23:23.352Z,75.23
2019-03-04T16:26:28.572Z,75.58
2019-03-04T16:29:37.186Z,75.81
2019-03-04T16:32:40.959Z,75.84
2019-03-04T16:35:46.387Z,75.99
2019-03-04T16:38:51.854Z,75.35
2019-03-04T16:41:57.199Z,76.26
2019-03-04T16:45:02.423Z,78.34
2019-03-04T16:48:07.770Z,77.84
2019-03-04T16:51:13.046Z,79.06
2019-03-04T16:54:18.504Z,79.41
2019-03-04T16:57:23.773Z,79.58
2019-03-04T17:00:29.083Z,79.16
2019-03-04T17:03:34.400Z,80.24
2019-03-04T17:06:39.687Z,80.25
2019-03-04T17:09:44.998Z,80.22
2019-03-04T17:12:50.242Z,77.89
2019-03-04T17:15:55.505Z,77.93
2019-03-04T17:19:00.759Z,77.83
2019-03-04T17:22:06.114Z,77.03
2019-03-04T17:25:12.913Z,78.07
2019-03-04T17:28:18.382Z,77.33
2019-03-04T17:31:44.118Z,77.58
2019-03-04T17:34:49.536Z,80.30
2019-03-04T17:37:56.004Z,79.74
2019-03-04T17:41:01.323Z,78.88
2019-03-04T17:44:06.562Z,79.78
2019-03-04T17:47:11.835Z,79.27
2019-03-04T17:50:21.440Z,80.75
2019-03-04T17:53:26.714Z,78.92
2019-03-04T17:56:31.978Z,80.63
2019-03-04T17:59:37.233Z,80.24
2019-03-04T18:02:42.603Z,79.45
2019-03-04T18:05:47.858Z,79.47
2019-03-04T18:08:53.168Z,81.02
2019-03-04T18:11:58.385Z,80.89
2019-03-04T18:15:03.897Z,80.00
2019-03-04T18:18:09.120Z,80.06
2019-03-04T18:21:14.478Z,80.16
2019-03-04T18:24:26.121Z,80.63
2019-03-04T18:27:34.577Z,79.58
2019-03-04T18:31:00.585Z,79.64
2019-03-04T18:34:42.667Z,79.67
2019-03-04T18:38:26.124Z,79.99
2019-03-04T18:42:11.010Z,80.44
2019-03-04T18:45:40.973Z,80.48
2019-03-04T18:48:56.799Z,79.09
2019-03-04T18:52:02.073Z,79.68
2019-03-04T18:55:07.801Z,81.06
2019-03-04T18:58:13.894Z,79.98
2019-03-04T19:01:19.163Z,80.62
2019-03-04T19:04:24.442Z,81.83
2019-03-04T19:07:29.707Z,81.31
2019-03-04T19:10:35.090Z,81.76
2019-03-04T19:13:40.368Z,80.87
2019-03-04T19:16:45.737Z,82.29
2019-03-04T19:19:51.067Z,82.58
2019-03-04T19:22:56.855Z,81.83
2019-03-04T19:26:02.367Z,82.35
2019-03-04T19:29:07.793Z,82.64
2019-03-04T19:32:13.231Z,82.63
2019-03-04T19:35:18.686Z,81.92
2019-03-04T19:38:23.959Z,81.02
2019-03-04T19:41:29.269Z,81.42
2019-03-04T19:44:36.141Z,81.52
2019-03-04T19:47:47.221Z,81.38
2019-03-04T19:50:52.467Z,80.67
2019-03-04T19:53:57.756Z,82.34
2019-03-04T19:57:03.044Z,81.94
2019-03-04T20:00:11.046Z,81.39
2019-03-04T20:03:16.557Z,80.67
2019-03-04T20:06:21.918Z,79.87
2019-03-04T20:09:27.253Z,81.65
2019-03-04T20:12:32.582Z,81.47
2019-03-04T20:15:37.922Z,82.09
2019-03-04T20:18:43.274Z,82.06
2019-03-04T20:21:48.702Z,82.81
2019-03-04T20:24:54.869Z,82.70
2019-03-04T20:28:01.937Z,82.17
2019-03-04T20:31:09.423Z,82.13
2019-03-04T20:34:14.831Z,82.19
2019-03-04T20:37:20.338Z,83.24
2019-03-04T20:40:26.058Z,83.24
2019-03-04T20:43:31.635Z,83.71
2019-03-04T20:46:37.054Z,83.63
2019-03-04T20:49:42.473Z,82.72
2019-03-04T20:52:49.389Z,82.87
2019-03-04T20:55:54.658Z,82.69
2019-03-04T20:59:00.113Z,82.83
2019-03-04T21:02:05.774Z,83.04
2019-03-04T21:05:12.044Z,82.56
2019-03-04T21:08:22.091Z,82.76
2019-03-04T21:11:24.439Z,81.46
2019-03-04T21:14:33.208Z,80.09
2019-03-04T21:17:38.487Z,79.66
2019-03-04T21:20:44.009Z,80.36
2019-03-04T21:23:49.381Z,79.64
2019-03-04T21:26:54.681Z,80.35
2019-03-04T21:30:48.477Z,80.61
2019-03-04T21:34:37.982Z,79.57
2019-03-04T21:37:48.241Z,79.84
2019-03-04T21:41:23.446Z,80.57
2019-03-04T21:45:01.727Z,80.25
2019-03-04T21:48:11.086Z,79.87
2019-03-04T21:51:53.304Z,79.64
2019-03-04T21:54:58.698Z,79.50
2019-03-04T21:58:03.953Z,79.84
2019-03-04T22:01:18.707Z,80.93
2019-03-04T22:04:25.513Z,79.70
2019-03-04T22:07:30.890Z,79.32
2019-03-04T22:10:38.423Z,80.44
2019-03-04T22:13:43.799Z,80.09
2019-03-04T22:16:49.113Z,80.24
2019-03-04T22:19:54.448Z,80.41
2019-03-04T22:22:59.751Z,80.48
2019-03-04T22:26:05.112Z,81.54
2019-03-04T22:29:10.446Z,82.06
2019-03-04T22:32:15.932Z,82.02
2019-03-04T22:35:21.290Z,81.78
2019-03-04T22:38:26.622Z,81.54
2019-03-04T22:41:31.939Z,81.31
2019-03-04T22:44:38.303Z,80.77
2019-03-04T22:47:43.868Z,81.28
2019-03-04T22:50:49.184Z,81.46
2019-03-04T22:53:56.042Z,82.09
2019-03-04T22:57:02.691Z,82.31
2019-03-04T23:00:50.680Z,83.52
2019-03-04T23:04:09.134Z,83.26
2019-03-04T23:07:31.920Z,83.60
2019-03-04T23:10:44.196Z,83.02
2019-03-04T23:14:14.214Z,83.44
2019-03-04T23:17:19.452Z,83.85
2019-03-04T23:20:24.695Z,85.75
2019-03-04T23:23:30.106Z,86.22
2019-03-04T23:26:35.446Z,87.72
2019-03-04T23:29:40.667Z,88.28
2019-03-04T23:32:45.945Z,89.65
2019-03-04T23:35:51.249Z,90.71
2019-03-04T23:38:56.510Z,92.05
2019-03-04T23:42:01.725Z,94.98
2019-03-04T23:45:09.840Z,97.27
2019-03-04T23:48:15.257Z,98.37
2019-03-04T23:51:20.506Z,98.90
2019-03-04T23:54:32.925Z,98.57
2019-03-04T23:57:38.167Z,100.17
